Time;durP1;ratioP1;P1;durP2;ratioP2;P2;SDS_P1;SDS_P2;PMS_P1;PMS_P2;Temp;Humidity;BMP_temperature;BMP_pressure;BME280_temperature;BME280_humidity;BME280_pressure;Samples;Min_cycle;Max_cycle;Signal;HPM_P1;HPM_P2
2023/07/31 00:01:27;;;;;;;5.20;1.57;;;15.50;99.90;;;;;;4176882;28;20202;-74
2023/07/31 00:03:29;;;;;;;7.10;2.37;;;15.50;99.90;;;;;;4165161;28;20299;-75
2023/07/31 00:05:30;;;;;;;3.30;1.70;;;15.50;99.90;;;;;;4168692;28;20217;-75
2023/07/31 00:07:33;;;;;;;4.67;1.73;;;15.60;99.90;;;;;;4163903;28;20749;-75
2023/07/31 00:09:35;;;;;;;5.67;1.60;;;15.60;99.90;;;;;;4171546;28;20223;-76
2023/07/31 00:11:38;;;;;;;6.47;1.73;;;15.60;99.90;;;;;;4173536;28;20309;-75
2023/07/31 00:13:40;;;;;;;3.00;1.37;;;15.60;99.90;;;;;;4170204;28;20226;-75
2023/07/31 00:15:43;;;;;;;5.70;1.60;;;15.60;99.90;;;;;;4168602;28;20207;-76
2023/07/31 00:17:45;;;;;;;5.30;2.00;;;15.60;99.90;;;;;;4164203;28;20246;-75
2023/07/31 00:19:49;;;;;;;11.57;2.00;;;15.60;99.90;;;;;;4166643;28;20237;-75
2023/07/31 00:21:51;;;;;;;6.27;1.87;;;15.50;99.90;;;;;;4172892;28;20264;-75
2023/07/31 00:23:52;;;;;;;4.67;1.50;;;15.50;99.90;;;;;;4170265;28;20629;-75
2023/07/31 00:25:54;;;;;;;4.03;1.70;;;15.50;99.90;;;;;;4173286;28;20746;-76
2023/07/31 00:27:56;;;;;;;3.43;1.47;;;15.50;99.90;;;;;;4163410;28;20211;-76
2023/07/31 00:29:58;;;;;;;3.90;1.80;;;15.50;99.90;;;;;;4175046;28;20257;-76
2023/07/31 00:32:03;;;;;;;5.57;2.00;;;15.50;99.90;;;;;;4173578;28;20215;-75
2023/07/31 00:34:05;;;;;;;6.53;1.87;;;15.40;99.90;;;;;;4172162;28;20301;-75
2023/07/31 00:36:07;;;;;;;5.00;1.73;;;15.40;99.90;;;;;;4170183;28;20231;-76
2023/07/31 00:38:09;;;;;;;5.80;1.63;;;15.40;99.90;;;;;;4174942;28;20218;-76
2023/07/31 00:40:11;;;;;;;10.23;1.50;;;15.40;99.90;;;;;;4165718;28;20208;-77
2023/07/31 00:42:12;;;;;;;4.90;1.50;;;15.40;99.90;;;;;;4171736;28;20249;-76
2023/07/31 00:44:15;;;;;;;4.60;1.77;;;15.40;99.90;;;;;;4167658;28;20210;-75
2023/07/31 00:46:16;;;;;;;5.13;1.80;;;15.40;99.90;;;;;;4173088;28;20253;-75
2023/07/31 00:48:20;;;;;;;5.07;1.73;;;15.40;99.90;;;;;;4167991;28;20575;-76
2023/07/31 00:50:23;;;;;;;3.73;1.70;;;15.40;99.90;;;;;;4163309;28;20232;-75
2023/07/31 00:52:25;;;;;;;8.20;1.80;;;15.40;99.90;;;;;;4170900;28;20237;-76
2023/07/31 00:54:27;;;;;;;9.20;1.87;;;15.50;99.90;;;;;;4177505;28;20214;-76
2023/07/31 00:56:29;;;;;;;4.63;1.70;;;15.50;99.90;;;;;;4174632;28;20234;-75
2023/07/31 00:58:31;;;;;;;2.83;1.40;;;15.50;99.90;;;;;;4176657;28;20289;-76
2023/07/31 01:00:33;;;;;;;10.63;2.40;;;15.60;99.90;;;;;;4171888;28;20289;-76
2023/07/31 01:02:36;;;;;;;3.87;1.57;;;15.60;99.90;;;;;;4167748;28;20207;-75
2023/07/31 01:04:39;;;;;;;5.70;2.00;;;15.60;99.90;;;;;;4173462;28;20677;-75
2023/07/31 01:06:49;;;;;;;4.53;1.63;;;15.70;99.90;;;;;;4169882;28;20244;-75
2023/07/31 01:09:02;;;;;;;6.93;1.83;;;15.70;99.90;;;;;;4174692;28;20301;-75
2023/07/31 01:11:11;;;;;;;6.10;1.70;;;15.70;99.90;;;;;;4176230;28;20222;-76
2023/07/31 01:13:12;;;;;;;2.80;1.50;;;15.70;99.90;;;;;;4176956;28;20309;-76
2023/07/31 01:15:18;;;;;;;5.00;1.80;;;15.70;99.90;;;;;;4178176;28;20202;-75
2023/07/31 01:17:19;;;;;;;5.43;1.60;;;15.70;99.90;;;;;;4168301;28;20320;-76
2023/07/31 01:19:24;;;;;;;4.20;1.63;;;15.80;99.90;;;;;;4173198;28;20216;-74
2023/07/31 01:21:52;;;;;;;4.57;1.60;;;15.80;99.90;;;;;;4175963;28;20321;-75
2023/07/31 01:24:23;;;;;;;5.13;1.60;;;15.70;99.90;;;;;;4160850;28;20227;-74
2023/07/31 01:26:34;;;;;;;5.07;1.60;;;15.70;99.90;;;;;;4176054;28;20333;-74
2023/07/31 01:28:44;;;;;;;6.93;1.33;;;15.80;99.90;;;;;;4172391;28;20207;-74
2023/07/31 01:30:49;;;;;;;7.27;1.50;;;15.80;99.90;;;;;;4168255;28;20234;-76
2023/07/31 01:32:53;;;;;;;5.00;1.50;;;15.90;99.90;;;;;;4167591;28;20306;-74
2023/07/31 01:34:57;;;;;;;5.03;1.80;;;15.90;99.90;;;;;;4168922;28;20210;-74
2023/07/31 01:36:59;;;;;;;6.10;1.40;;;15.90;99.90;;;;;;4174763;28;20245;-74
2023/07/31 01:39:02;;;;;;;2.37;1.33;;;16.00;99.90;;;;;;4171821;28;20641;-74
2023/07/31 01:41:04;;;;;;;5.20;1.83;;;16.10;99.90;;;;;;4173029;28;20213;-74
2023/07/31 01:43:07;;;;;;;4.53;1.80;;;16.10;99.90;;;;;;4171578;28;20212;-74
2023/07/31 01:45:10;;;;;;;3.67;1.30;;;16.10;99.90;;;;;;4170929;28;20310;-74
2023/07/31 01:47:12;;;;;;;5.70;1.80;;;16.10;99.90;;;;;;4168753;28;20243;-75
2023/07/31 01:49:13;;;;;;;5.33;1.57;;;16.10;99.90;;;;;;4175899;28;20214;-76
2023/07/31 01:51:15;;;;;;;6.10;1.70;;;16.10;99.90;;;;;;4177724;28;20395;-74
2023/07/31 01:53:17;;;;;;;4.47;1.67;;;16.00;99.90;;;;;;4175457;28;20211;-74
2023/07/31 01:55:18;;;;;;;4.23;1.80;;;16.00;99.90;;;;;;4180635;28;20230;-74
2023/07/31 01:57:20;;;;;;;4.57;1.80;;;15.90;99.90;;;;;;4172404;28;20246;-74
2023/07/31 01:59:24;;;;;;;4.60;1.40;;;15.80;99.90;;;;;;4165118;28;20213;-74
2023/07/31 02:01:25;;;;;;;3.43;1.73;;;15.70;99.90;;;;;;4175878;28;20197;-75
2023/07/31 02:03:26;;;;;;;2.77;1.50;;;15.70;99.90;;;;;;4167300;28;20372;-76
2023/07/31 02:05:28;;;;;;;5.30;1.77;;;15.60;99.90;;;;;;4169610;28;20199;-74
2023/07/31 02:07:30;;;;;;;3.53;1.50;;;15.60;99.90;;;;;;4169624;28;20302;-74
2023/07/31 02:09:32;;;;;;;6.20;2.00;;;15.60;99.90;;;;;;4176587;28;20306;-74
2023/07/31 02:11:34;;;;;;;6.73;1.93;;;15.60;99.90;;;;;;4168953;28;20249;-75
2023/07/31 02:13:36;;;;;;;3.47;1.57;;;15.50;99.90;;;;;;4170288;28;20230;-76
2023/07/31 02:15:38;;;;;;;6.13;1.80;;;15.60;99.90;;;;;;4168481;28;20202;-74
2023/07/31 02:17:40;;;;;;;5.43;1.80;;;15.60;99.90;;;;;;4179337;28;20268;-75
2023/07/31 02:19:41;;;;;;;5.17;1.23;;;15.60;99.90;;;;;;4178378;28;20333;-74
2023/07/31 02:21:43;;;;;;;6.33;2.97;;;15.60;99.90;;;;;;4177295;28;20210;-74
2023/07/31 02:23:45;;;;;;;5.33;2.10;;;15.70;99.90;;;;;;4169356;28;20238;-74
2023/07/31 02:25:47;;;;;;;4.57;1.80;;;15.70;99.90;;;;;;4174705;28;20314;-75
2023/07/31 02:27:49;;;;;;;4.80;1.80;;;15.70;99.90;;;;;;4169404;28;20580;-74
2023/07/31 02:29:50;;;;;;;2.67;1.50;;;15.70;99.90;;;;;;4170931;28;20207;-76
2023/07/31 02:31:53;;;;;;;3.50;1.70;;;15.80;99.90;;;;;;4170873;28;20218;-74
2023/07/31 02:33:55;;;;;;;4.93;1.80;;;15.80;99.90;;;;;;4178124;28;20318;-75
2023/07/31 02:35:57;;;;;;;2.67;1.87;;;15.80;99.90;;;;;;4180416;28;20950;-74
2023/07/31 02:37:58;;;;;;;5.13;1.87;;;15.80;99.90;;;;;;4174636;28;20306;-74
2023/07/31 02:40:00;;;;;;;4.77;1.80;;;15.80;99.90;;;;;;4175962;28;20303;-73
2023/07/31 02:42:02;;;;;;;2.77;1.80;;;15.80;99.90;;;;;;4172181;28;20210;-74
2023/07/31 02:44:05;;;;;;;4.03;1.83;;;15.80;99.90;;;;;;4171094;28;20242;-74
2023/07/31 02:46:07;;;;;;;3.07;1.80;;;15.80;99.90;;;;;;4164425;28;20239;-73
2023/07/31 02:48:10;;;;;;;5.63;1.63;;;15.80;99.90;;;;;;4168152;28;20237;-74
2023/07/31 02:50:12;;;;;;;5.93;1.80;;;15.80;99.90;;;;;;4174888;28;20750;-74
2023/07/31 02:52:14;;;;;;;4.70;2.03;;;15.80;99.90;;;;;;4165713;28;20732;-78
2023/07/31 02:54:15;;;;;;;5.67;1.97;;;15.70;99.90;;;;;;4163986;28;20713;-76
2023/07/31 02:56:17;;;;;;;4.63;2.10;;;15.80;99.90;;;;;;4171790;28;20226;-75
2023/07/31 02:58:19;;;;;;;7.17;2.33;;;15.70;99.90;;;;;;4173792;28;20214;-74
2023/07/31 03:00:21;;;;;;;4.53;2.30;;;15.70;99.90;;;;;;4173558;28;20884;-74
2023/07/31 03:02:24;;;;;;;6.33;2.60;;;15.70;99.90;;;;;;4171277;28;20210;-75
2023/07/31 03:04:27;;;;;;;6.90;2.20;;;15.70;99.90;;;;;;4171597;28;20242;-77
2023/07/31 03:06:29;;;;;;;4.43;2.00;;;15.70;99.90;;;;;;4169506;28;20262;-74
2023/07/31 03:08:31;;;;;;;5.03;2.00;;;15.70;99.90;;;;;;4171072;28;20305;-75
2023/07/31 03:10:33;;;;;;;5.77;1.80;;;15.60;99.90;;;;;;4170636;28;20241;-73
2023/07/31 03:12:35;;;;;;;9.70;2.70;;;15.60;99.90;;;;;;4175398;28;20582;-73
2023/07/31 03:14:37;;;;;;;5.47;1.97;;;15.60;99.90;;;;;;4167948;28;20579;-74
2023/07/31 03:16:37;;;;;;;5.73;2.03;;;15.60;99.90;;;;;;4175334;28;20684;-76
2023/07/31 03:18:39;;;;;;;6.10;1.90;;;15.60;99.90;;;;;;4169250;28;20203;-74
2023/07/31 03:20:44;;;;;;;4.83;1.80;;;15.60;99.90;;;;;;4176509;28;20208;-74
2023/07/31 03:22:46;;;;;;;10.07;1.90;;;15.60;99.90;;;;;;4175426;28;20222;-75
2023/07/31 03:24:48;;;;;;;5.17;1.97;;;15.60;99.90;;;;;;4168340;28;20211;-74
2023/07/31 03:26:50;;;;;;;6.23;1.90;;;15.60;99.90;;;;;;4171633;28;20241;-74
2023/07/31 03:28:52;;;;;;;4.93;1.90;;;15.60;99.90;;;;;;4174500;28;20664;-74
2023/07/31 03:30:54;;;;;;;6.03;2.27;;;15.60;99.90;;;;;;4173120;28;20233;-75
2023/07/31 03:32:56;;;;;;;3.87;1.47;;;15.60;99.90;;;;;;4175107;28;20218;-73
2023/07/31 03:34:58;;;;;;;5.20;2.17;;;15.60;99.90;;;;;;4171154;28;20210;-74
2023/07/31 03:37:04;;;;;;;6.43;1.90;;;15.60;99.90;;;;;;4179270;28;20234;-75
2023/07/31 03:39:06;;;;;;;4.50;1.73;;;15.60;99.90;;;;;;4169420;28;20217;-75
2023/07/31 03:41:07;;;;;;;6.00;2.50;;;15.50;99.90;;;;;;4175815;28;20297;-74
2023/07/31 03:43:09;;;;;;;4.97;2.17;;;15.50;99.90;;;;;;4165957;28;20207;-74
2023/07/31 03:45:11;;;;;;;3.60;1.70;;;15.40;99.90;;;;;;4172331;28;20219;-75
2023/07/31 03:47:12;;;;;;;5.50;2.00;;;15.40;99.90;;;;;;4165408;28;20572;-75
2023/07/31 03:49:14;;;;;;;8.43;2.43;;;15.20;99.90;;;;;;4170822;28;20292;-76
2023/07/31 03:51:16;;;;;;;4.13;2.07;;;15.20;99.90;;;;;;4169314;28;20698;-77
2023/07/31 03:53:19;;;;;;;5.90;1.80;;;15.10;99.90;;;;;;4176437;28;20218;-76
2023/07/31 03:55:21;;;;;;;4.90;1.80;;;15.10;99.90;;;;;;4178115;28;20212;-75
2023/07/31 03:57:23;;;;;;;5.47;2.03;;;15.00;99.90;;;;;;4173335;28;20237;-74
2023/07/31 03:59:25;;;;;;;5.20;1.90;;;15.00;99.90;;;;;;4173126;28;20759;-74
2023/07/31 04:01:27;;;;;;;6.10;1.90;;;15.00;99.90;;;;;;4167282;28;20336;-75
2023/07/31 04:03:28;;;;;;;6.87;1.90;;;15.00;99.90;;;;;;4175910;28;20206;-74
2023/07/31 04:05:31;;;;;;;4.47;1.90;;;14.90;99.90;;;;;;4174308;28;20206;-74
2023/07/31 04:07:33;;;;;;;7.43;2.20;;;14.90;99.90;;;;;;4169012;28;20302;-76
2023/07/31 04:09:36;;;;;;;9.33;2.13;;;14.90;99.90;;;;;;4169702;28;20306;-75
2023/07/31 04:11:39;;;;;;;8.07;2.57;;;14.90;99.90;;;;;;4172737;28;20218;-75
2023/07/31 04:13:40;;;;;;;9.13;2.00;;;14.90;99.90;;;;;;4169944;28;20588;-75
2023/07/31 04:15:42;;;;;;;7.87;2.27;;;14.90;99.90;;;;;;4173295;28;20210;-75
2023/07/31 04:17:44;;;;;;;5.50;2.20;;;14.90;99.90;;;;;;4165486;28;20313;-75
2023/07/31 04:19:46;;;;;;;5.47;2.00;;;14.90;99.90;;;;;;4178894;28;20297;-74
2023/07/31 04:21:48;;;;;;;5.80;2.07;;;14.90;99.90;;;;;;4178995;28;20224;-75
2023/07/31 04:23:49;;;;;;;5.57;2.17;;;14.90;99.90;;;;;;4172623;28;20246;-74
2023/07/31 04:25:52;;;;;;;5.17;2.20;;;14.90;99.90;;;;;;4178760;28;20236;-74
2023/07/31 04:27:54;;;;;;;7.03;2.40;;;14.90;99.90;;;;;;4177622;28;20715;-74
2023/07/31 04:29:56;;;;;;;5.23;2.20;;;14.80;99.90;;;;;;4177749;28;20760;-75
2023/07/31 04:31:58;;;;;;;2.77;1.73;;;14.80;99.90;;;;;;4174022;28;20236;-75
2023/07/31 04:34:00;;;;;;;6.43;2.10;;;14.80;99.90;;;;;;4181942;28;20912;-74
2023/07/31 04:36:02;;;;;;;7.30;2.97;;;14.80;99.90;;;;;;4172307;28;20233;-76
2023/07/31 04:38:03;;;;;;;6.77;2.20;;;14.70;99.90;;;;;;4176157;28;20340;-76
2023/07/31 04:40:06;;;;;;;7.47;2.73;;;14.70;99.90;;;;;;4171565;28;20638;-75
2023/07/31 04:42:10;;;;;;;4.83;2.43;;;14.70;99.90;;;;;;4176924;28;20206;-74
2023/07/31 04:44:12;;;;;;;5.50;2.30;;;14.70;99.90;;;;;;4171146;28;20217;-75
2023/07/31 04:46:14;;;;;;;6.90;2.53;;;14.70;99.90;;;;;;4173988;28;20327;-77
2023/07/31 04:48:15;;;;;;;9.20;3.73;;;14.70;99.90;;;;;;4175112;28;20251;-75
2023/07/31 04:50:16;;;;;;;5.80;2.40;;;14.70;99.90;;;;;;4182119;28;20215;-75
2023/07/31 04:52:18;;;;;;;8.90;2.43;;;14.70;99.90;;;;;;4174434;28;20236;-76
2023/07/31 04:54:19;;;;;;;7.77;2.90;;;14.70;99.90;;;;;;4172851;28;20220;-76
2023/07/31 04:56:21;;;;;;;7.70;2.57;;;14.70;99.90;;;;;;4177581;28;20649;-76
2023/07/31 04:58:24;;;;;;;7.27;2.30;;;14.70;99.90;;;;;;4165187;28;20241;-76
2023/07/31 05:00:26;;;;;;;5.43;2.80;;;14.60;99.90;;;;;;4177110;28;20219;-76
2023/07/31 05:02:28;;;;;;;8.10;2.57;;;14.60;99.90;;;;;;4179543;28;20296;-76
2023/07/31 05:04:30;;;;;;;8.43;2.83;;;14.60;99.90;;;;;;4172237;28;20251;-77
2023/07/31 05:06:32;;;;;;;10.87;2.73;;;14.50;99.90;;;;;;4171882;28;20599;-76
2023/07/31 05:08:34;;;;;;;10.33;3.20;;;14.60;99.90;;;;;;4169142;28;20220;-76
2023/07/31 05:10:36;;;;;;;8.93;2.93;;;14.60;99.90;;;;;;4172794;28;20218;-75
2023/07/31 05:12:38;;;;;;;10.47;2.83;;;14.50;99.90;;;;;;4178141;28;20260;-76
2023/07/31 05:14:41;;;;;;;8.17;2.70;;;14.50;99.90;;;;;;4170828;28;20219;-75
2023/07/31 05:16:43;;;;;;;10.60;3.40;;;14.50;99.90;;;;;;4181623;28;20243;-77
2023/07/31 05:18:44;;;;;;;6.53;3.00;;;14.60;99.90;;;;;;4172159;28;20312;-75
2023/07/31 05:20:46;;;;;;;8.83;3.50;;;14.60;99.90;;;;;;4167709;28;20323;-76
2023/07/31 05:22:48;;;;;;;11.50;3.30;;;14.60;99.90;;;;;;4179350;28;20214;-75
2023/07/31 05:24:50;;;;;;;9.73;4.63;;;14.60;99.90;;;;;;4181384;28;20296;-75
2023/07/31 05:26:52;;;;;;;7.30;3.40;;;14.60;99.90;;;;;;4176023;28;20238;-75
2023/07/31 05:28:53;;;;;;;8.57;3.30;;;14.50;99.90;;;;;;4177680;28;20212;-75
2023/07/31 05:31:01;;;;;;;9.83;3.43;;;14.60;99.90;;;;;;4169979;28;20238;-75
2023/07/31 05:33:03;;;;;;;5.50;3.53;;;14.60;99.90;;;;;;4179771;28;20284;-75
2023/07/31 05:35:05;;;;;;;7.93;3.37;;;14.60;99.90;;;;;;4169946;28;20297;-75
2023/07/31 05:37:07;;;;;;;8.53;3.57;;;14.60;99.90;;;;;;4179937;28;20320;-75
2023/07/31 05:39:08;;;;;;;7.60;3.00;;;14.60;99.90;;;;;;4179380;28;20745;-74
2023/07/31 05:41:10;;;;;;;8.97;3.47;;;14.60;99.90;;;;;;4177491;28;20292;-75
2023/07/31 05:43:12;;;;;;;6.77;3.63;;;14.60;99.90;;;;;;4178919;28;20295;-74
2023/07/31 05:45:14;;;;;;;18.40;3.77;;;14.60;99.90;;;;;;4172343;28;20225;-75
2023/07/31 05:47:17;;;;;;;14.43;3.30;;;14.60;99.90;;;;;;4175662;28;20714;-76
2023/07/31 05:49:19;;;;;;;8.97;3.70;;;14.60;99.90;;;;;;4171143;28;20590;-74
2023/07/31 05:51:21;;;;;;;9.63;3.63;;;14.70;99.90;;;;;;4172490;28;20239;-75
2023/07/31 05:53:23;;;;;;;9.43;3.50;;;14.70;99.90;;;;;;4167521;28;20224;-74
2023/07/31 05:55:26;;;;;;;6.93;3.20;;;14.70;99.90;;;;;;4179595;28;20202;-75
2023/07/31 05:57:28;;;;;;;10.70;3.30;;;14.70;99.90;;;;;;4171793;28;20240;-76
2023/07/31 05:59:32;;;;;;;9.70;3.77;;;14.70;99.90;;;;;;4180341;28;20866;-74
2023/07/31 06:01:34;;;;;;;18.70;3.77;;;14.80;99.90;;;;;;4171473;28;20243;-75
2023/07/31 06:03:38;;;;;;;6.47;3.27;;;14.80;99.90;;;;;;4164558;28;20603;-75
2023/07/31 06:05:39;;;;;;;13.30;3.30;;;14.80;99.90;;;;;;4174367;28;20241;-75
2023/07/31 06:07:41;;;;;;;7.97;3.53;;;14.80;99.90;;;;;;4178626;28;20583;-75
2023/07/31 06:09:43;;;;;;;7.93;3.57;;;14.80;99.90;;;;;;4180201;28;20312;-75
2023/07/31 06:11:45;;;;;;;8.87;3.50;;;14.80;99.90;;;;;;4171897;28;20779;-77
2023/07/31 06:13:48;;;;;;;7.27;3.37;;;14.80;99.90;;;;;;4166453;28;20293;-76
2023/07/31 06:15:50;;;;;;;9.27;3.90;;;14.80;99.90;;;;;;4178924;28;20233;-76
2023/07/31 06:17:52;;;;;;;6.80;3.60;;;14.90;99.90;;;;;;4176996;28;20671;-76
2023/07/31 06:19:55;;;;;;;9.77;3.67;;;14.90;99.90;;;;;;4177926;28;20311;-76
2023/07/31 06:21:56;;;;;;;9.37;3.80;;;14.90;99.90;;;;;;4172361;28;20213;-75
2023/07/31 06:23:58;;;;;;;11.53;4.03;;;14.90;99.90;;;;;;4178477;28;20714;-75
2023/07/31 06:26:00;;;;;;;11.97;3.60;;;14.90;99.90;;;;;;4170570;28;20233;-75
2023/07/31 06:28:02;;;;;;;8.87;3.50;;;14.90;99.90;;;;;;4176022;28;20671;-76
2023/07/31 06:30:04;;;;;;;10.47;3.70;;;15.00;99.90;;;;;;4175202;28;20217;-75
2023/07/31 06:32:07;;;;;;;9.57;3.47;;;15.00;99.90;;;;;;4167646;28;20223;-75
2023/07/31 06:34:09;;;;;;;9.47;3.97;;;15.10;99.90;;;;;;4173997;28;20617;-75
2023/07/31 06:36:12;;;;;;;8.27;3.40;;;15.10;99.90;;;;;;4174354;28;20227;-75
2023/07/31 06:38:14;;;;;;;7.40;3.07;;;15.10;99.90;;;;;;4178380;28;20207;-75
2023/07/31 06:40:16;;;;;;;8.60;3.30;;;15.20;99.90;;;;;;4167753;28;20675;-76
2023/07/31 06:42:18;;;;;;;7.70;3.60;;;15.10;99.90;;;;;;4171986;28;20652;-75
2023/07/31 06:44:20;;;;;;;6.70;3.03;;;15.20;99.90;;;;;;4163549;28;20585;-76
2023/07/31 06:46:22;;;;;;;12.00;3.33;;;15.20;99.90;;;;;;4169387;28;20251;-76
2023/07/31 06:48:24;;;;;;;7.80;2.73;;;15.20;99.90;;;;;;4168926;28;20239;-77
2023/07/31 06:50:25;;;;;;;7.47;2.97;;;15.20;99.90;;;;;;4174888;28;20703;-77
2023/07/31 06:52:28;;;;;;;13.23;3.47;;;15.20;99.90;;;;;;4175666;28;20250;-75
2023/07/31 06:54:30;;;;;;;8.63;3.10;;;15.20;99.90;;;;;;4175250;28;20298;-75
2023/07/31 06:56:32;;;;;;;8.93;3.00;;;15.20;99.90;;;;;;4167027;28;20246;-75
2023/07/31 06:58:34;;;;;;;6.20;2.70;;;15.20;99.90;;;;;;4168841;28;20572;-75
2023/07/31 07:00:36;;;;;;;9.07;2.80;;;15.30;99.90;;;;;;4177837;28;20305;-75
2023/07/31 07:02:37;;;;;;;5.80;2.67;;;15.30;99.90;;;;;;4174957;28;20660;-75
2023/07/31 07:04:39;;;;;;;10.93;2.73;;;15.30;99.90;;;;;;4178694;28;20207;-75
2023/07/31 07:06:42;;;;;;;11.70;2.53;;;15.30;99.90;;;;;;4179692;28;20669;-75
2023/07/31 07:08:45;;;;;;;5.50;2.63;;;15.30;99.90;;;;;;4170597;28;20214;-75
2023/07/31 07:10:47;;;;;;;7.93;2.70;;;15.30;99.90;;;;;;4176881;28;20217;-76
2023/07/31 07:12:50;;;;;;;6.50;2.60;;;15.30;99.90;;;;;;4179049;28;20214;-75
2023/07/31 07:14:52;;;;;;;8.10;2.60;;;15.30;99.90;;;;;;4179722;28;20210;-75
2023/07/31 07:16:54;;;;;;;8.00;2.87;;;15.40;99.90;;;;;;4167911;28;20245;-75
2023/07/31 07:18:56;;;;;;;7.67;3.20;;;15.40;99.90;;;;;;4174403;28;20309;-75
2023/07/31 07:20:58;;;;;;;12.07;5.27;;;15.40;99.90;;;;;;4176291;28;20215;-75
2023/07/31 07:23:00;;;;;;;9.43;2.90;;;15.40;99.90;;;;;;4173345;28;20202;-75
2023/07/31 07:25:03;;;;;;;6.53;2.67;;;15.50;99.90;;;;;;4179770;28;20214;-75
2023/07/31 07:27:06;;;;;;;6.23;2.37;;;15.50;99.90;;;;;;4177246;28;20608;-75
2023/07/31 07:29:08;;;;;;;7.80;2.40;;;15.50;99.90;;;;;;4177260;28;20217;-75
2023/07/31 07:31:09;;;;;;;4.53;2.30;;;15.60;99.90;;;;;;4170012;28;20207;-75
2023/07/31 07:33:12;;;;;;;6.77;2.37;;;15.60;99.90;;;;;;4170344;28;20326;-75
2023/07/31 07:35:14;;;;;;;9.17;2.40;;;15.70;99.90;;;;;;4165219;28;20211;-75
2023/07/31 07:37:15;;;;;;;6.97;2.70;;;15.70;99.90;;;;;;4179633;28;20269;-75
2023/07/31 07:39:17;;;;;;;3.37;2.10;;;15.70;99.90;;;;;;4179195;28;20710;-75
2023/07/31 07:41:20;;;;;;;4.90;2.40;;;15.70;99.90;;;;;;4179092;28;20313;-75
2023/07/31 07:43:22;;;;;;;5.10;2.80;;;15.80;99.90;;;;;;4173149;28;20216;-76
2023/07/31 07:45:23;;;;;;;7.27;2.53;;;15.80;99.90;;;;;;4171276;28;20226;-78
2023/07/31 07:47:25;;;;;;;8.53;2.77;;;15.80;99.90;;;;;;4174328;28;20230;-75
2023/07/31 07:49:27;;;;;;;5.13;2.23;;;15.90;99.90;;;;;;4178806;28;20243;-75
2023/07/31 07:51:31;;;;;;;5.37;2.43;;;16.00;99.90;;;;;;4166107;28;20250;-75
2023/07/31 07:53:33;;;;;;;5.90;2.33;;;16.00;99.90;;;;;;4174431;28;20323;-75
2023/07/31 07:55:36;;;;;;;5.63;2.60;;;16.10;99.90;;;;;;4163583;28;20219;-75
2023/07/31 07:57:39;;;;;;;5.00;2.50;;;16.10;99.90;;;;;;4179248;28;20316;-74
2023/07/31 07:59:42;;;;;;;6.83;2.37;;;16.20;99.90;;;;;;4165936;28;20209;-75
2023/07/31 08:01:44;;;;;;;9.23;2.60;;;16.30;99.90;;;;;;4178843;28;20212;-75
2023/07/31 08:03:46;;;;;;;5.27;2.23;;;16.30;99.90;;;;;;4182538;28;20270;-74
2023/07/31 08:05:48;;;;;;;11.93;2.93;;;16.30;99.90;;;;;;4181839;28;20310;-75
2023/07/31 08:07:50;;;;;;;5.40;2.37;;;16.30;99.90;;;;;;4181583;28;20229;-75
2023/07/31 08:09:51;;;;;;;8.87;2.67;;;16.30;99.90;;;;;;4174726;28;20218;-75
2023/07/31 08:11:54;;;;;;;6.97;2.87;;;16.40;99.90;;;;;;4179317;28;20208;-76
2023/07/31 08:13:56;;;;;;;7.33;2.77;;;16.40;99.90;;;;;;4177476;28;20670;-75
2023/07/31 08:15:58;;;;;;;6.77;2.37;;;16.50;99.90;;;;;;4182548;28;20282;-75
2023/07/31 08:18:00;;;;;;;4.97;2.60;;;16.50;99.90;;;;;;4180480;28;20309;-75
2023/07/31 08:20:02;;;;;;;5.77;2.30;;;16.60;99.90;;;;;;4176849;28;20226;-75
2023/07/31 08:22:04;;;;;;;5.40;2.27;;;16.70;99.90;;;;;;4179057;28;20253;-75
2023/07/31 08:24:07;;;;;;;4.27;2.20;;;16.70;99.90;;;;;;4179517;28;20708;-75
2023/07/31 08:26:15;;;;;;;4.83;1.97;;;16.90;99.90;;;;;;4172661;28;20225;-74
2023/07/31 08:28:17;;;;;;;8.20;2.60;;;16.90;99.90;;;;;;4174141;28;20307;-75
2023/07/31 08:30:20;;;;;;;6.17;2.50;;;17.00;99.90;;;;;;4182343;28;20725;-74
2023/07/31 08:32:22;;;;;;;6.97;2.80;;;17.10;99.90;;;;;;4181266;28;20269;-75
2023/07/31 08:34:24;;;;;;;4.50;2.17;;;17.20;99.90;;;;;;4165952;28;20213;-77
2023/07/31 08:36:26;;;;;;;6.63;2.50;;;17.30;99.90;;;;;;4178371;28;20237;-74
2023/07/31 08:38:27;;;;;;;8.13;2.50;;;17.30;99.90;;;;;;4182553;28;20300;-74
2023/07/31 08:40:29;;;;;;;7.80;2.40;;;17.40;99.90;;;;;;4182025;28;20219;-76
2023/07/31 08:42:31;;;;;;;8.83;2.80;;;17.40;99.90;;;;;;4165565;28;20195;-75
2023/07/31 08:44:34;;;;;;;5.03;2.40;;;17.50;99.90;;;;;;4179598;28;20214;-75
2023/07/31 08:46:38;;;;;;;8.10;2.10;;;17.40;99.90;;;;;;4171354;28;20707;-74
2023/07/31 08:48:42;;;;;;;8.47;2.63;;;17.50;99.90;;;;;;4172823;28;20663;-74
2023/07/31 08:50:44;;;;;;;6.00;2.10;;;17.60;99.90;;;;;;4181887;28;20297;-75
2023/07/31 08:52:47;;;;;;;6.57;2.20;;;17.60;99.90;;;;;;4178348;28;20795;-77
2023/07/31 08:54:49;;;;;;;5.23;2.23;;;17.60;99.90;;;;;;4173843;28;20212;-75
2023/07/31 08:56:53;;;;;;;7.53;2.13;;;17.60;99.90;;;;;;4167935;28;20705;-77
2023/07/31 08:58:56;;;;;;;6.17;2.53;;;17.60;99.90;;;;;;4178310;28;20295;-77
2023/07/31 09:00:59;;;;;;;4.67;2.53;;;17.60;99.90;;;;;;4172752;28;20253;-75
2023/07/31 09:03:08;;;;;;;4.63;2.30;;;17.60;99.90;;;;;;4178804;28;20251;-75
2023/07/31 09:05:11;;;;;;;6.17;2.33;;;17.60;99.90;;;;;;4171018;28;20261;-75
2023/07/31 09:07:14;;;;;;;8.20;2.70;;;17.70;99.90;;;;;;4181253;28;20709;-78
2023/07/31 09:09:17;;;;;;;8.10;2.20;;;17.70;99.90;;;;;;4181400;28;20305;-75
2023/07/31 09:11:19;;;;;;;6.13;2.10;;;17.80;99.90;;;;;;4172946;28;20210;-75
2023/07/31 09:13:21;;;;;;;5.97;2.00;;;17.90;99.90;;;;;;4167929;28;20263;-75
2023/07/31 09:15:23;;;;;;;4.03;2.10;;;18.00;99.90;;;;;;4174603;28;20223;-74
2023/07/31 09:17:32;;;;;;;5.77;2.30;;;18.00;99.90;;;;;;4179743;28;20230;-75
2023/07/31 09:19:37;;;;;;;5.27;2.33;;;18.00;99.90;;;;;;4170697;28;20198;-75
2023/07/31 09:21:49;;;;;;;3.33;2.20;;;18.00;99.90;;;;;;4179788;28;20208;-75
2023/07/31 09:23:53;;;;;;;5.13;2.40;;;17.90;99.90;;;;;;4179880;28;20194;-75
2023/07/31 09:25:55;;;;;;;8.90;2.47;;;17.90;99.90;;;;;;4178537;28;20325;-74
2023/07/31 09:27:59;;;;;;;6.20;2.00;;;18.00;99.90;;;;;;4172663;28;20220;-76
2023/07/31 09:30:01;;;;;;;4.83;2.57;;;18.00;99.90;;;;;;4173535;28;20306;-75
2023/07/31 09:32:03;;;;;;;4.40;2.13;;;17.90;99.90;;;;;;4169012;28;20213;-75
2023/07/31 09:34:05;;;;;;;5.10;2.47;;;18.00;99.90;;;;;;4176322;28;20317;-74
2023/07/31 09:36:08;;;;;;;5.40;2.30;;;18.00;99.90;;;;;;4173293;28;20265;-75
2023/07/31 09:38:12;;;;;;;4.87;1.90;;;18.00;99.90;;;;;;4173617;28;20594;-74
2023/07/31 09:40:26;;;;;;;4.30;2.50;;;18.00;99.90;;;;;;4180536;28;20213;-76
2023/07/31 09:42:29;;;;;;;3.90;1.87;;;18.00;99.90;;;;;;4169509;28;20236;-75
2023/07/31 09:44:41;;;;;;;5.87;2.30;;;18.10;99.90;;;;;;4172547;28;20627;-75
2023/07/31 09:46:43;;;;;;;5.10;2.10;;;18.10;99.90;;;;;;4168816;28;20326;-75
2023/07/31 09:48:45;;;;;;;6.43;3.47;;;18.10;99.90;;;;;;4170374;28;20261;-75
2023/07/31 09:50:48;;;;;;;6.77;3.30;;;18.00;99.90;;;;;;4172105;28;20834;-75
2023/07/31 09:52:51;;;;;;;5.37;2.27;;;18.10;99.90;;;;;;4169129;28;20324;-74
2023/07/31 09:54:53;;;;;;;6.87;2.60;;;18.20;99.90;;;;;;4167354;28;20290;-75
2023/07/31 09:56:57;;;;;;;5.30;2.23;;;18.30;99.90;;;;;;4174208;28;20706;-75
2023/07/31 09:58:59;;;;;;;4.37;2.37;;;18.30;99.90;;;;;;4169563;28;20306;-77
2023/07/31 10:01:03;;;;;;;6.80;2.20;;;18.40;99.90;;;;;;4172325;28;20215;-76
2023/07/31 10:03:07;;;;;;;5.87;2.10;;;18.40;99.90;;;;;;4169870;28;20220;-76
2023/07/31 10:05:08;;;;;;;6.47;2.93;;;18.40;99.90;;;;;;4170722;28;20294;-77
2023/07/31 10:07:10;;;;;;;5.40;2.30;;;18.40;99.90;;;;;;4175279;28;20229;-76
2023/07/31 10:09:19;;;;;;;4.93;2.30;;;18.50;99.90;;;;;;4176343;28;20220;-75
2023/07/31 10:11:22;;;;;;;4.73;2.50;;;18.50;99.90;;;;;;4173782;28;20305;-75
2023/07/31 10:13:25;;;;;;;4.40;2.30;;;18.60;99.90;;;;;;4176446;28;20262;-75
2023/07/31 10:15:27;;;;;;;6.47;2.37;;;18.70;99.90;;;;;;4176511;28;20210;-75
2023/07/31 10:17:30;;;;;;;2.60;2.07;;;18.80;99.90;;;;;;4180512;28;20277;-75
2023/07/31 10:19:33;;;;;;;4.60;2.20;;;19.00;99.90;;;;;;4173045;28;20206;-75
2023/07/31 10:21:37;;;;;;;3.53;2.00;;;19.10;99.90;;;;;;4178006;28;20215;-75
2023/07/31 10:23:40;;;;;;;4.03;2.60;;;19.20;99.90;;;;;;4177051;28;20682;-75
2023/07/31 10:25:44;;;;;;;6.37;2.47;;;19.30;99.90;;;;;;4168797;28;20254;-75
2023/07/31 10:27:48;;;;;;;4.10;2.27;;;19.40;99.90;;;;;;4168389;28;20298;-76
2023/07/31 10:29:51;;;;;;;7.07;2.80;;;19.40;99.90;;;;;;4174868;28;20306;-75
2023/07/31 10:31:54;;;;;;;6.67;4.47;;;19.50;99.90;;;;;;4171772;28;20301;-75
2023/07/31 10:33:58;;;;;;;5.30;2.60;;;19.50;99.90;;;;;;4172235;28;20223;-75
2023/07/31 10:36:17;;;;;;;6.50;2.30;;;19.50;99.90;;;;;;4171544;28;20715;-75
2023/07/31 10:38:19;;;;;;;5.93;2.67;;;19.40;99.90;;;;;;4174621;28;20220;-75